sensor_id;sensor_type;location;lat;lon;timestamp;P1;P2;P0
57798;PMS7003;43626;53.866;30.298;2023-05-29T00:01:52;24.2;20.6;13
57798;PMS7003;43626;53.866;30.298;2023-05-29T00:06:44;26.4;21.4;13
57798;PMS7003;43626;53.866;30.298;2023-05-29T00:11:52;24.4;20.6;12.8
57798;PMS7003;43626;53.866;30.298;2023-05-29T00:16:52;24.6;20.8;13
57798;PMS7003;43626;53.866;30.298;2023-05-29T00:22:16;23.3;20.5;12.5
57798;PMS7003;43626;53.866;30.298;2023-05-29T00:26:34;28;22.4;13
57798;PMS7003;43626;53.866;30.298;2023-05-29T00:32:16;24.8;20.4;13.4
57798;PMS7003;43626;53.866;30.298;2023-05-29T00:37:18;24.2;20.4;12.8
57798;PMS7003;43626;53.866;30.298;2023-05-29T00:41:44;23.2;20.8;12.8
57798;PMS7003;43626;53.866;30.298;2023-05-29T00:46:34;22.8;18.2;11.2
57798;PMS7003;43626;53.866;30.298;2023-05-29T00:52:02;23.4;20.2;12.6
57798;PMS7003;43626;53.866;30.298;2023-05-29T00:57:18;25.6;21;12.2
57798;PMS7003;43626;53.866;30.298;2023-05-29T01:01:52;21.2;18.4;11
57798;PMS7003;43626;53.866;30.298;2023-05-29T01:06:52;21.2;18.2;12.2
57798;PMS7003;43626;53.866;30.298;2023-05-29T01:11:59;23.2;20.2;11.8
57798;PMS7003;43626;53.866;30.298;2023-05-29T01:16:35;22;20;12
57798;PMS7003;43626;53.866;30.298;2023-05-29T01:21:53;21.3;18.8;11.8
57798;PMS7003;43626;53.866;30.298;2023-05-29T01:26:45;22;18;12
57798;PMS7003;43626;53.866;30.298;2023-05-29T01:32:06;24.8;20.4;13
57798;PMS7003;43626;53.866;30.298;2023-05-29T01:37:00;22.6;19.4;13
57798;PMS7003;43626;53.866;30.298;2023-05-29T01:42:02;29;23;14.2
57798;PMS7003;43626;53.866;30.298;2023-05-29T01:47:20;28.2;24.6;15.4
57798;PMS7003;43626;53.866;30.298;2023-05-29T01:51:34;24.4;22;14.8
57798;PMS7003;43626;53.866;30.298;2023-05-29T01:56:36;29.2;24.6;16
57798;PMS7003;43626;53.866;30.298;2023-05-29T02:02:08;29;23.4;15.4
57798;PMS7003;43626;53.866;30.298;2023-05-29T02:06:52;29.6;24;15.2
57798;PMS7003;43626;53.866;30.298;2023-05-29T02:12:18;30.2;27;17.4
57798;PMS7003;43626;53.866;30.298;2023-05-29T02:16:56;35.8;28.8;19.4
57798;PMS7003;43626;53.866;30.298;2023-05-29T02:22:06;35.3;31;20
57798;PMS7003;43626;53.866;30.298;2023-05-29T02:27:08;34;29.2;18.4
57798;PMS7003;43626;53.866;30.298;2023-05-29T02:31:54;34.6;30.6;19.2
57798;PMS7003;43626;53.866;30.298;2023-05-29T02:36:48;33.2;29;19
57798;PMS7003;43626;53.866;30.298;2023-05-29T02:41:34;34.2;28.8;19.6
57798;PMS7003;43626;53.866;30.298;2023-05-29T02:46:42;32;27.2;18.8
57798;PMS7003;43626;53.866;30.298;2023-05-29T02:52:10;33.2;28.8;18.8
57798;PMS7003;43626;53.866;30.298;2023-05-29T02:56:46;32;25.6;16.4
57798;PMS7003;43626;53.866;30.298;2023-05-29T03:02:20;29.2;25.6;17.4
57798;PMS7003;43626;53.866;30.298;2023-05-29T03:07:20;33.4;28.4;19
57798;PMS7003;43626;53.866;30.298;2023-05-29T03:11:48;31.6;27;17.8
57798;PMS7003;43626;53.866;30.298;2023-05-29T03:17:03;31.4;27;18
57798;PMS7003;43626;53.866;30.298;2023-05-29T03:22:04;30.3;27.5;18.3
57798;PMS7003;43626;53.866;30.298;2023-05-29T03:27:20;29.6;26.2;17.4
57798;PMS7003;43626;53.866;30.298;2023-05-29T03:31:42;28;23.8;15.4
57798;PMS7003;43626;53.866;30.298;2023-05-29T03:36:54;28.2;25.6;16.4
57798;PMS7003;43626;53.866;30.298;2023-05-29T03:42:00;30;25.8;17
57798;PMS7003;43626;53.866;30.298;2023-05-29T03:46:48;30.8;27.2;18
57798;PMS7003;43626;53.866;30.298;2023-05-29T03:51:42;31.4;28.8;18.2
57798;PMS7003;43626;53.866;30.298;2023-05-29T03:57:20;34.2;29.4;19.6
57798;PMS7003;43626;53.866;30.298;2023-05-29T04:02:04;36;30.6;19.4
57798;PMS7003;43626;53.866;30.298;2023-05-29T04:07:18;35.8;30.2;19.4
57798;PMS7003;43626;53.866;30.298;2023-05-29T04:12:10;38.6;31.4;21
57798;PMS7003;43626;53.866;30.298;2023-05-29T04:17:08;37;30.6;19.6
57798;PMS7003;43626;53.866;30.298;2023-05-29T04:21:34;37.8;31.8;20
57798;PMS7003;43626;53.866;30.298;2023-05-29T04:27:18;39.2;31.4;20.4
57798;PMS7003;43626;53.866;30.298;2023-05-29T04:32:20;35.2;30.6;19.8
57798;PMS7003;43626;53.866;30.298;2023-05-29T04:36:46;35.2;28.4;19.2
57798;PMS7003;43626;53.866;30.298;2023-05-29T04:42:18;36.2;30.4;19.2
57798;PMS7003;43626;53.866;30.298;2023-05-29T04:47:22;31.8;28.4;18.6
57798;PMS7003;43626;53.866;30.298;2023-05-29T04:51:34;26;21.8;14.8
57798;PMS7003;43626;53.866;30.298;2023-05-29T04:56:54;16.6;13.2;8.2
57798;PMS7003;43626;53.866;30.298;2023-05-29T05:01:42;15.8;12.8;8
57798;PMS7003;43626;53.866;30.298;2023-05-29T05:07:02;15.8;13.4;8.6
57798;PMS7003;43626;53.866;30.298;2023-05-29T05:11:40;14.6;11.8;7.8
57798;PMS7003;43626;53.866;30.298;2023-05-29T05:17:10;16;13;8.6
57798;PMS7003;43626;53.866;30.298;2023-05-29T05:22:08;16.4;13.8;9
57798;PMS7003;43626;53.866;30.298;2023-05-29T05:26:34;14.3;12.8;8.8
57798;PMS7003;43626;53.866;30.298;2023-05-29T05:32:20;12.6;10.8;6.6
57798;PMS7003;43626;53.866;30.298;2023-05-29T05:36:54;8.2;7.2;4.4
57798;PMS7003;43626;53.866;30.298;2023-05-29T05:41:34;5.6;4.8;3.2
57798;PMS7003;43626;53.866;30.298;2023-05-29T05:47:18;4.6;4.2;2.6
57798;PMS7003;43626;53.866;30.298;2023-05-29T05:51:48;4.4;3.2;1.6
57798;PMS7003;43626;53.866;30.298;2023-05-29T05:57:10;3.8;2.8;1.8
57798;PMS7003;43626;53.866;30.298;2023-05-29T06:01:54;3.2;2;1.2
57798;PMS7003;43626;53.866;30.298;2023-05-29T06:06:34;3;2.4;0.8
57798;PMS7003;43626;53.866;30.298;2023-05-29T06:12:00;2.4;1.2;0.8
57798;PMS7003;43626;53.866;30.298;2023-05-29T06:16:52;2.2;1.6;0.8
57798;PMS7003;43626;53.866;30.298;2023-05-29T06:21:34;5.2;2.4;1
57798;PMS7003;43626;53.866;30.298;2023-05-29T06:27:20;0.8;0.5;0
57798;PMS7003;43626;53.866;30.298;2023-05-29T06:31:34;4.8;3.8;1.4
57798;PMS7003;43626;53.866;30.298;2023-05-29T06:37:20;2.4;1.2;0.6
57798;PMS7003;43626;53.866;30.298;2023-05-29T06:42:10;2;1.2;0.6
57798;PMS7003;43626;53.866;30.298;2023-05-29T06:46:34;2.4;1.6;0.2
57798;PMS7003;43626;53.866;30.298;2023-05-29T06:52:10;1.4;0.6;0.2
57798;PMS7003;43626;53.866;30.298;2023-05-29T06:57:20;1;0.8;0.2
57798;PMS7003;43626;53.866;30.298;2023-05-29T07:02:18;1.6;1.2;0.2
57798;PMS7003;43626;53.866;30.298;2023-05-29T07:06:46;1.4;0.6;0
57798;PMS7003;43626;53.866;30.298;2023-05-29T07:12:18;2;1.2;0.2
57798;PMS7003;43626;53.866;30.298;2023-05-29T07:17:10;1;1;0
57798;PMS7003;43626;53.866;30.298;2023-05-29T07:21:34;1.2;1.2;0.6
57798;PMS7003;43626;53.866;30.298;2023-05-29T07:26:52;2.5;2;0.5
57798;PMS7003;43626;53.866;30.298;2023-05-29T07:31:34;1.4;1.2;0.6
57798;PMS7003;43626;53.866;30.298;2023-05-29T07:37:08;1.8;1.6;0.8
57798;PMS7003;43626;53.866;30.298;2023-05-29T07:41:54;2.6;2;0.8
57798;PMS7003;43626;53.866;30.298;2023-05-29T07:47:10;2;1.2;0.8
57798;PMS7003;43626;53.866;30.298;2023-05-29T07:52:18;1.6;1;0.4
57798;PMS7003;43626;53.866;30.298;2023-05-29T07:57:00;1.4;1.2;0.4
57798;PMS7003;43626;53.866;30.298;2023-05-29T08:01:50;1.8;1.6;0.6
57798;PMS7003;43626;53.866;30.298;2023-05-29T08:06:42;1.8;0.8;0.2
57798;PMS7003;43626;53.866;30.298;2023-05-29T08:11:46;2;1.2;0.8
57798;PMS7003;43626;53.866;30.298;2023-05-29T08:17:18;1.8;1.4;0.4
57798;PMS7003;43626;53.866;30.298;2023-05-29T08:22:02;1;0.8;0.2
57798;PMS7003;43626;53.866;30.298;2023-05-29T08:26:36;2;1.8;0.5
57798;PMS7003;43626;53.866;30.298;2023-05-29T08:31:46;1.8;1.2;0
57798;PMS7003;43626;53.866;30.298;2023-05-29T08:36:34;2.2;1.2;0.4
57798;PMS7003;43626;53.866;30.298;2023-05-29T08:42:01;0.6;0.6;0
57798;PMS7003;43626;53.866;30.298;2023-05-29T08:46:44;0.8;0.8;0.4
57798;PMS7003;43626;53.866;30.298;2023-05-29T08:52:07;2.2;1.6;0.4
57798;PMS7003;43626;53.866;30.298;2023-05-29T08:57:18;1.5;1;0.5
57798;PMS7003;43626;53.866;30.298;2023-05-29T09:01:51;1;1;0.4
57798;PMS7003;43626;53.866;30.298;2023-05-29T09:07:18;2.6;2.2;1
57798;PMS7003;43626;53.866;30.298;2023-05-29T09:12:10;3.2;3;1.6
57798;PMS7003;43626;53.866;30.298;2023-05-29T09:17:00;1.6;1.4;0.6
57798;PMS7003;43626;53.866;30.298;2023-05-29T09:21:34;3;1.3;0.5
57798;PMS7003;43626;53.866;30.298;2023-05-29T09:27:10;2.2;1.4;0.4
57798;PMS7003;43626;53.866;30.298;2023-05-29T09:32:18;1.4;1.2;0.6
57798;PMS7003;43626;53.866;30.298;2023-05-29T09:37:02;2.8;1.6;0.8
57798;PMS7003;43626;53.866;30.298;2023-05-29T09:42:18;2.4;1.6;0.8
57798;PMS7003;43626;53.866;30.298;2023-05-29T09:47:11;2.4;2;1.2
57798;PMS7003;43626;53.866;30.298;2023-05-29T09:51:48;2.8;2;0.6
57798;PMS7003;43626;53.866;30.298;2023-05-29T09:57:02;1.6;1.4;0.4
57798;PMS7003;43626;53.866;30.298;2023-05-29T10:01:34;2.6;1.4;0.8
57798;PMS7003;43626;53.866;30.298;2023-05-29T10:07:22;1.6;1.6;0.6
57798;PMS7003;43626;53.866;30.298;2023-05-29T10:11:46;2.6;1.8;0.8
57798;PMS7003;43626;53.866;30.298;2023-05-29T10:16:36;1.6;1.2;0.2
57798;PMS7003;43626;53.866;30.298;2023-05-29T10:22:20;1.5;1.5;0.5
57798;PMS7003;43626;53.866;30.298;2023-05-29T10:26:47;4.4;3.2;1.4
57798;PMS7003;43626;53.866;30.298;2023-05-29T10:32:21;2.8;1.6;0.8
57798;PMS7003;43626;53.866;30.298;2023-05-29T10:36:56;2;1.8;1
57798;PMS7003;43626;53.866;30.298;2023-05-29T10:41:34;2;2;1
57798;PMS7003;43626;53.866;30.298;2023-05-29T10:47:22;1.8;1;0.2
57798;PMS7003;43626;53.866;30.298;2023-05-29T10:52:02;1.8;1.4;0.2
57798;PMS7003;43626;53.866;30.298;2023-05-29T10:57:10;2.6;2.2;1.4
57798;PMS7003;43626;53.866;30.298;2023-05-29T11:02:18;3.2;2;0.6
57798;PMS7003;43626;53.866;30.298;2023-05-29T11:06:54;1.4;1;0.6
57798;PMS7003;43626;53.866;30.298;2023-05-29T11:12:16;2.4;1.4;0.4
57798;PMS7003;43626;53.866;30.298;2023-05-29T11:16:40;2.4;1.6;0.8
57798;PMS7003;43626;53.866;30.298;2023-05-29T11:21:53;2.8;1.5;0.3
57798;PMS7003;43626;53.866;30.298;2023-05-29T11:27:18;2.6;1.6;0.4
57798;PMS7003;43626;53.866;30.298;2023-05-29T11:31:46;1.4;0.8;0.2
57798;PMS7003;43626;53.866;30.298;2023-05-29T11:37:18;3;1.6;0.8
57798;PMS7003;43626;53.866;30.298;2023-05-29T11:42:10;1.6;1.4;0.6
57798;PMS7003;43626;53.866;30.298;2023-05-29T11:46:54;2.6;1.2;0.4
57798;PMS7003;43626;53.866;30.298;2023-05-29T11:51:48;2.8;1.6;0.8
57798;PMS7003;43626;53.866;30.298;2023-05-29T11:57:18;2;1.4;0.6
57798;PMS7003;43626;53.866;30.298;2023-05-29T12:02:18;2.3;1.8;1
57798;PMS7003;43626;53.866;30.298;2023-05-29T12:06:46;2;1.2;0.4
57798;PMS7003;43626;53.866;30.298;2023-05-29T12:12:20;2.2;1.6;0.6
57798;PMS7003;43626;53.866;30.298;2023-05-29T12:17:10;3;2;0.6
57798;PMS7003;43626;53.866;30.298;2023-05-29T12:21:34;2.2;2;0.6
57798;PMS7003;43626;53.866;30.298;2023-05-29T12:26:42;2;2;0.6
57798;PMS7003;43626;53.866;30.298;2023-05-29T12:31:34;1.4;1.4;0.6
57798;PMS7003;43626;53.866;30.298;2023-05-29T12:37:10;2;1.6;0.6
57798;PMS7003;43626;53.866;30.298;2023-05-29T12:42:04;2.8;2.3;1.3
57798;PMS7003;43626;53.866;30.298;2023-05-29T12:46:56;3.2;2;0.8
57798;PMS7003;43626;53.866;30.298;2023-05-29T12:52:20;1.8;1.4;0.8
57798;PMS7003;43626;53.866;30.298;2023-05-29T12:56:46;2.6;2.4;1
57798;PMS7003;43626;53.866;30.298;2023-05-29T13:01:56;2;1.6;0.8
57798;PMS7003;43626;53.866;30.298;2023-05-29T13:07:10;2.6;2;1.4
57798;PMS7003;43626;53.866;30.298;2023-05-29T13:11:34;2;1.8;0.8
57798;PMS7003;43626;53.866;30.298;2023-05-29T13:17:20;1.6;1.2;0.6
57798;PMS7003;43626;53.866;30.298;2023-05-29T13:22:04;1.5;1;1
57798;PMS7003;43626;53.866;30.298;2023-05-29T13:27:20;2.4;2;0.8
57798;PMS7003;43626;53.866;30.298;2023-05-29T13:32:08;2;1.6;0.8
57798;PMS7003;43626;53.866;30.298;2023-05-29T13:36:54;2.2;1.6;0.8
57798;PMS7003;43626;53.866;30.298;2023-05-29T13:41:48;2.4;2;0.6
57798;PMS7003;43626;53.866;30.298;2023-05-29T13:46:34;6.4;3.8;2.4
57798;PMS7003;43626;53.866;30.298;2023-05-29T13:51:46;4;2.6;1.6
57798;PMS7003;43626;53.866;30.298;2023-05-29T13:57:18;2.8;2.6;1.6
57798;PMS7003;43626;53.866;30.298;2023-05-29T14:01:46;3.8;2.8;1.2
57798;PMS7003;43626;53.866;30.298;2023-05-29T14:07:18;4.6;3.6;2
57798;PMS7003;43626;53.866;30.298;2023-05-29T14:12:10;3.2;1.8;1
57798;PMS7003;43626;53.866;30.298;2023-05-29T14:16:46;2.2;1.8;0.8
57798;PMS7003;43626;53.866;30.298;2023-05-29T14:21:34;3.8;2.5;1.5
57798;PMS7003;43626;53.866;30.298;2023-05-29T14:27:18;3;2.4;1.8
57798;PMS7003;43626;53.866;30.298;2023-05-29T14:32:18;2.4;2.2;1.6
57798;PMS7003;43626;53.866;30.298;2023-05-29T14:36:46;2.2;2.2;1.2
57798;PMS7003;43626;53.866;30.298;2023-05-29T14:41:48;3.2;2;1.2
57798;PMS7003;43626;53.866;30.298;2023-05-29T14:46:46;2.8;2;1.2
57798;PMS7003;43626;53.866;30.298;2023-05-29T14:51:34;3.6;2.6;1.6
57798;PMS7003;43626;53.866;30.298;2023-05-29T14:57:10;2;1.6;0.2
57798;PMS7003;43626;53.866;30.298;2023-05-29T15:01:46;3.6;2.2;0.8
57798;PMS7003;43626;53.866;30.298;2023-05-29T15:07:10;3.6;2.8;2
57798;PMS7003;43626;53.866;30.298;2023-05-29T15:12:04;3.2;2.6;1.2
57798;PMS7003;43626;53.866;30.298;2023-05-29T15:17:10;3;2.4;1.4
57798;PMS7003;43626;53.866;30.298;2023-05-29T15:22:20;3.6;2.2;1.4
57798;PMS7003;43626;53.866;30.298;2023-05-29T15:26:34;10.8;8.8;5.3
57798;PMS7003;43626;53.866;30.298;2023-05-29T15:32:08;3.8;3.4;1.8
57798;PMS7003;43626;53.866;30.298;2023-05-29T15:37:08;4.2;3.6;2
57798;PMS7003;43626;53.866;30.298;2023-05-29T15:41:34;3.8;3.2;1.6
57798;PMS7003;43626;53.866;30.298;2023-05-29T15:47:18;2.8;2.2;1
57798;PMS7003;43626;53.866;30.298;2023-05-29T15:52:02;3;2.8;1.8
57798;PMS7003;43626;53.866;30.298;2023-05-29T15:57:18;5.6;3.6;1.8
57798;PMS7003;43626;53.866;30.298;2023-05-29T16:02:09;10.2;8.2;5
57798;PMS7003;43626;53.866;30.298;2023-05-29T16:06:54;4.2;3.8;2.6
57798;PMS7003;43626;53.866;30.298;2023-05-29T16:11:34;3.8;3.2;2
57798;PMS7003;43626;53.866;30.298;2023-05-29T16:16:34;4.4;3.6;2
57798;PMS7003;43626;53.866;30.298;2023-05-29T16:21:52;3.6;3.6;2.6
57798;PMS7003;43626;53.866;30.298;2023-05-29T16:27:18;3.3;3.3;2.3
57798;PMS7003;43626;53.866;30.298;2023-05-29T16:31:46;6.6;5;2.4
57798;PMS7003;43626;53.866;30.298;2023-05-29T16:37:18;8.8;6.4;4
57798;PMS7003;43626;53.866;30.298;2023-05-29T16:42:18;5.2;4;2.2
57798;PMS7003;43626;53.866;30.298;2023-05-29T16:47:00;7.2;5.2;3.2
57798;PMS7003;43626;53.866;30.298;2023-05-29T16:51:34;5.2;4.2;2.4
57798;PMS7003;43626;53.866;30.298;2023-05-29T16:57:02;6.8;5.8;3.6
57798;PMS7003;43626;53.866;30.298;2023-05-29T17:02:18;17.8;11.4;5.2
57798;PMS7003;43626;53.866;30.298;2023-05-29T17:07:02;10.4;8.6;5.2
57798;PMS7003;43626;53.866;30.298;2023-05-29T17:12:02;7.4;5.8;4
57798;PMS7003;43626;53.866;30.298;2023-05-29T17:16:32;7.8;6.2;3.4
57798;PMS7003;43626;53.866;30.298;2023-05-29T17:21:46;10.2;7.8;4.4
57798;PMS7003;43626;53.866;30.298;2023-05-29T17:26:32;11.3;8.3;5
57798;PMS7003;43626;53.866;30.298;2023-05-29T17:31:54;12.2;9.6;5.6
57798;PMS7003;43626;53.866;30.298;2023-05-29T17:37:08;15.2;10;5.4
57798;PMS7003;43626;53.866;30.298;2023-05-29T17:42:20;18;11.6;6.6
57798;PMS7003;43626;53.866;30.298;2023-05-29T17:47:08;35.4;27.6;16
57798;PMS7003;43626;53.866;30.298;2023-05-29T17:52:00;29.2;23.8;14.2
57798;PMS7003;43626;53.866;30.298;2023-05-29T17:56:44;23.4;20.8;14
57798;PMS7003;43626;53.866;30.298;2023-05-29T18:02:20;22.2;17.8;11.8
57798;PMS7003;43626;53.866;30.298;2023-05-29T18:07:20;27.2;19.8;12
57798;PMS7003;43626;53.866;30.298;2023-05-29T18:11:54;23.2;17.2;9.6
57798;PMS7003;43626;53.866;30.298;2023-05-29T18:17:20;48;38.4;25.8
57798;PMS7003;43626;53.866;30.298;2023-05-29T18:22:02;21;18;11.6
57798;PMS7003;43626;53.866;30.298;2023-05-29T18:26:34;11.8;10;6.3
57798;PMS7003;43626;53.866;30.298;2023-05-29T18:31:52;11.6;9.6;6.2
57798;PMS7003;43626;53.866;30.298;2023-05-29T18:36:54;10;8.8;6.2
57798;PMS7003;43626;53.866;30.298;2023-05-29T18:42:06;11.2;8.6;5.8
57798;PMS7003;43626;53.866;30.298;2023-05-29T18:46:50;7.2;6.8;4.6
57798;PMS7003;43626;53.866;30.298;2023-05-29T18:52:08;11;8;4.6
57798;PMS7003;43626;53.866;30.298;2023-05-29T18:57:16;10.8;8.6;5.2
57798;PMS7003;43626;53.866;30.298;2023-05-29T19:01:34;10.4;9;6
57798;PMS7003;43626;53.866;30.298;2023-05-29T19:07:08;10.8;9.2;6
57798;PMS7003;43626;53.866;30.298;2023-05-29T19:11:34;12.6;9.2;6
57798;PMS7003;43626;53.866;30.298;2023-05-29T19:16:46;12.2;10.6;7
57798;PMS7003;43626;53.866;30.298;2023-05-29T19:22:18;13;11.8;8.2
57798;PMS7003;43626;53.866;30.298;2023-05-29T19:27:02;14;11.3;7
57798;PMS7003;43626;53.866;30.298;2023-05-29T19:32:10;12.8;11.8;7.6
57798;PMS7003;43626;53.866;30.298;2023-05-29T19:36:32;17.2;13.2;8.6
57798;PMS7003;43626;53.866;30.298;2023-05-29T19:41:54;17.6;14.6;9.4
57798;PMS7003;43626;53.866;30.298;2023-05-29T19:47:08;25.4;20.2;12.4
57798;PMS7003;43626;53.866;30.298;2023-05-29T19:51:32;24;20.4;13.2
57798;PMS7003;43626;53.866;30.298;2023-05-29T19:56:52;26;20.6;13.2
57798;PMS7003;43626;53.866;30.298;2023-05-29T20:02:20;22.6;18.8;11.8
57798;PMS7003;43626;53.866;30.298;2023-05-29T20:06:34;19.6;17;11.4
57798;PMS7003;43626;53.866;30.298;2023-05-29T20:12:18;19.8;17.4;11.8
57798;PMS7003;43626;53.866;30.298;2023-05-29T20:17:10;19.8;16.6;10.6
57798;PMS7003;43626;53.866;30.298;2023-05-29T20:22:08;20;17.4;10.8
57798;PMS7003;43626;53.866;30.298;2023-05-29T20:26:46;20;16.4;10.6
57798;PMS7003;43626;53.866;30.298;2023-05-29T20:32:22;17.5;15;10.8
57798;PMS7003;43626;53.866;30.298;2023-05-29T20:37:20;21.2;18.4;12.6
57798;PMS7003;43626;53.866;30.298;2023-05-29T20:41:34;27.6;21.8;14.8
57798;PMS7003;43626;53.866;30.298;2023-05-29T20:47:20;22.2;20;13
57798;PMS7003;43626;53.866;30.298;2023-05-29T20:52:10;22;19.4;13
57798;PMS7003;43626;53.866;30.298;2023-05-29T20:57:10;23.8;20.4;13.6
57798;PMS7003;43626;53.866;30.298;2023-05-29T21:01:40;22.4;18.4;12.6
57798;PMS7003;43626;53.866;30.298;2023-05-29T21:06:34;23.6;20.4;14.2
57798;PMS7003;43626;53.866;30.298;2023-05-29T21:12:06;24.8;22.2;15.2
57798;PMS7003;43626;53.866;30.298;2023-05-29T21:16:44;26;24.6;17.2
57798;PMS7003;43626;53.866;30.298;2023-05-29T21:22:08;26.4;23.6;17.2
57798;PMS7003;43626;53.866;30.298;2023-05-29T21:27:16;26.4;23;16.8
57798;PMS7003;43626;53.866;30.298;2023-05-29T21:31:34;32.3;27.5;18.5
57798;PMS7003;43626;53.866;30.298;2023-05-29T21:37:06;28.2;25.6;18.2
57798;PMS7003;43626;53.866;30.298;2023-05-29T21:41:54;27.4;25;17.8
57798;PMS7003;43626;53.866;30.298;2023-05-29T21:46:50;27.6;23.6;17.4
57798;PMS7003;43626;53.866;30.298;2023-05-29T21:52:18;25.4;23.6;16.6
57798;PMS7003;43626;53.866;30.298;2023-05-29T21:57:02;22.6;19.8;14.8
57798;PMS7003;43626;53.866;30.298;2023-05-29T22:02:10;23.8;21;14.8
57798;PMS7003;43626;53.866;30.298;2023-05-29T22:06:42;24.4;20.8;14.6
57798;PMS7003;43626;53.866;30.298;2023-05-29T22:11:52;26.4;25;17
57798;PMS7003;43626;53.866;30.298;2023-05-29T22:16:48;28.8;24.6;18.2
57798;PMS7003;43626;53.866;30.298;2023-05-29T22:21:32;36.2;30.8;21.6
57798;PMS7003;43626;53.866;30.298;2023-05-29T22:26:50;34.4;29.6;20.4
57798;PMS7003;43626;53.866;30.298;2023-05-29T22:32:16;33.8;29;19.5
57798;PMS7003;43626;53.866;30.298;2023-05-29T22:36:42;37.2;30.8;21
57798;PMS7003;43626;53.866;30.298;2023-05-29T22:42:06;32;28.6;20
57798;PMS7003;43626;53.866;30.298;2023-05-29T22:47:18;33;29.2;19.6
57798;PMS7003;43626;53.866;30.298;2023-05-29T22:51:42;29.6;27;18.2
57798;PMS7003;43626;53.866;30.298;2023-05-29T22:56:50;29.6;25.2;17.2
57798;PMS7003;43626;53.866;30.298;2023-05-29T23:02:00;27.4;25.6;18
57798;PMS7003;43626;53.866;30.298;2023-05-29T23:07:14;28;26.8;19
57798;PMS7003;43626;53.866;30.298;2023-05-29T23:11:42;29.2;26.8;19
57798;PMS7003;43626;53.866;30.298;2023-05-29T23:17:00;31.2;27;18.6
57798;PMS7003;43626;53.866;30.298;2023-05-29T23:21:34;30.2;26.4;17.4
57798;PMS7003;43626;53.866;30.298;2023-05-29T23:26:54;28.6;25.2;18
57798;PMS7003;43626;53.866;30.298;2023-05-29T23:32:00;28.8;25.3;18.3
57798;PMS7003;43626;53.866;30.298;2023-05-29T23:36:34;25.4;23.8;16.4
57798;PMS7003;43626;53.866;30.298;2023-05-29T23:42:00;23.4;20.2;13.2
57798;PMS7003;43626;53.866;30.298;2023-05-29T23:46:49;28;24.6;17
57798;PMS7003;43626;53.866;30.298;2023-05-29T23:52:04;26.6;25.2;17
57798;PMS7003;43626;53.866;30.298;2023-05-29T23:57:12;24.6;21.2;15.6
